sensor_id;sensor_type;location;lat;lon;timestamp;P1;durP1;ratioP1;P2;durP2;ratioP2
5616;SDS011;2830;50.656;7.568;2023-02-28T00:01:12;11.55;;;3.67;;
5616;SDS011;2830;50.656;7.568;2023-02-28T00:03:39;11.10;;;5.20;;
5616;SDS011;2830;50.656;7.568;2023-02-28T00:06:07;13.30;;;4.63;;
5616;SDS011;2830;50.656;7.568;2023-02-28T00:08:36;11.50;;;4.20;;
5616;SDS011;2830;50.656;7.568;2023-02-28T00:11:07;11.07;;;4.28;;
5616;SDS011;2830;50.656;7.568;2023-02-28T00:13:35;13.25;;;4.32;;
5616;SDS011;2830;50.656;7.568;2023-02-28T00:16:10;13.30;;;4.53;;
5616;SDS011;2830;50.656;7.568;2023-02-28T00:18:37;15.38;;;4.72;;
5616;SDS011;2830;50.656;7.568;2023-02-28T00:21:05;13.13;;;3.80;;
5616;SDS011;2830;50.656;7.568;2023-02-28T00:23:32;15.55;;;4.38;;
5616;SDS011;2830;50.656;7.568;2023-02-28T00:26:00;10.82;;;3.55;;
5616;SDS011;2830;50.656;7.568;2023-02-28T00:28:27;12.80;;;4.25;;
5616;SDS011;2830;50.656;7.568;2023-02-28T00:30:54;10.48;;;3.42;;
5616;SDS011;2830;50.656;7.568;2023-02-28T00:33:21;11.75;;;3.45;;
5616;SDS011;2830;50.656;7.568;2023-02-28T00:35:48;10.27;;;4.15;;
5616;SDS011;2830;50.656;7.568;2023-02-28T00:38:15;11.57;;;4.95;;
5616;SDS011;2830;50.656;7.568;2023-02-28T00:40:42;13.15;;;4.70;;
5616;SDS011;2830;50.656;7.568;2023-02-28T00:43:09;13.93;;;5.93;;
5616;SDS011;2830;50.656;7.568;2023-02-28T00:45:36;9.35;;;3.40;;
5616;SDS011;2830;50.656;7.568;2023-02-28T00:48:03;11.15;;;3.58;;
5616;SDS011;2830;50.656;7.568;2023-02-28T00:50:30;10.00;;;3.63;;
5616;SDS011;2830;50.656;7.568;2023-02-28T00:52:57;9.95;;;3.63;;
5616;SDS011;2830;50.656;7.568;2023-02-28T00:55:24;10.32;;;3.85;;
5616;SDS011;2830;50.656;7.568;2023-02-28T00:57:51;11.27;;;4.47;;
5616;SDS011;2830;50.656;7.568;2023-02-28T01:00:18;9.20;;;3.13;;
5616;SDS011;2830;50.656;7.568;2023-02-28T01:02:45;11.68;;;3.35;;
5616;SDS011;2830;50.656;7.568;2023-02-28T01:05:13;11.40;;;3.92;;
5616;SDS011;2830;50.656;7.568;2023-02-28T01:07:40;11.60;;;3.63;;
5616;SDS011;2830;50.656;7.568;2023-02-28T01:10:07;9.70;;;2.90;;
5616;SDS011;2830;50.656;7.568;2023-02-28T01:12:34;8.68;;;2.95;;
5616;SDS011;2830;50.656;7.568;2023-02-28T01:15:01;12.05;;;3.80;;
5616;SDS011;2830;50.656;7.568;2023-02-28T01:17:29;8.13;;;2.83;;
5616;SDS011;2830;50.656;7.568;2023-02-28T01:19:56;8.93;;;3.10;;
5616;SDS011;2830;50.656;7.568;2023-02-28T01:22:23;9.85;;;3.45;;
5616;SDS011;2830;50.656;7.568;2023-02-28T01:24:50;9.13;;;3.13;;
5616;SDS011;2830;50.656;7.568;2023-02-28T01:27:17;10.95;;;2.85;;
5616;SDS011;2830;50.656;7.568;2023-02-28T01:29:44;9.52;;;3.33;;
5616;SDS011;2830;50.656;7.568;2023-02-28T01:32:11;9.80;;;3.00;;
5616;SDS011;2830;50.656;7.568;2023-02-28T01:34:38;8.88;;;3.15;;
5616;SDS011;2830;50.656;7.568;2023-02-28T01:37:06;9.05;;;3.35;;
5616;SDS011;2830;50.656;7.568;2023-02-28T01:39:33;12.95;;;4.32;;
5616;SDS011;2830;50.656;7.568;2023-02-28T01:42:00;10.32;;;3.45;;
5616;SDS011;2830;50.656;7.568;2023-02-28T01:47:12;9.38;;;3.75;;
5616;SDS011;2830;50.656;7.568;2023-02-28T01:49:40;12.23;;;3.33;;
5616;SDS011;2830;50.656;7.568;2023-02-28T01:52:07;11.32;;;4.25;;
5616;SDS011;2830;50.656;7.568;2023-02-28T01:54:35;8.73;;;2.72;;
5616;SDS011;2830;50.656;7.568;2023-02-28T01:57:09;10.20;;;2.92;;
5616;SDS011;2830;50.656;7.568;2023-02-28T01:59:48;8.80;;;2.80;;
5616;SDS011;2830;50.656;7.568;2023-02-28T02:02:17;9.55;;;2.55;;
5616;SDS011;2830;50.656;7.568;2023-02-28T02:04:52;9.27;;;3.42;;
5616;SDS011;2830;50.656;7.568;2023-02-28T02:07:21;13.77;;;3.30;;
5616;SDS011;2830;50.656;7.568;2023-02-28T02:09:48;8.85;;;2.72;;
5616;SDS011;2830;50.656;7.568;2023-02-28T02:15:13;12.52;;;3.45;;
5616;SDS011;2830;50.656;7.568;2023-02-28T02:17:45;9.40;;;3.10;;
5616;SDS011;2830;50.656;7.568;2023-02-28T02:25:31;9.40;;;2.78;;
5616;SDS011;2830;50.656;7.568;2023-02-28T02:30:53;9.10;;;2.80;;
5616;SDS011;2830;50.656;7.568;2023-02-28T02:35:54;9.23;;;2.40;;
5616;SDS011;2830;50.656;7.568;2023-02-28T02:38:36;10.23;;;3.13;;
5616;SDS011;2830;50.656;7.568;2023-02-28T02:41:25;9.48;;;3.05;;
5616;SDS011;2830;50.656;7.568;2023-02-28T02:43:56;11.20;;;3.10;;
5616;SDS011;2830;50.656;7.568;2023-02-28T02:46:33;10.60;;;3.13;;
5616;SDS011;2830;50.656;7.568;2023-02-28T02:49:01;9.98;;;3.92;;
5616;SDS011;2830;50.656;7.568;2023-02-28T02:51:29;9.02;;;2.92;;
5616;SDS011;2830;50.656;7.568;2023-02-28T02:54:05;12.85;;;4.03;;
5616;SDS011;2830;50.656;7.568;2023-02-28T02:56:34;10.02;;;3.15;;
5616;SDS011;2830;50.656;7.568;2023-02-28T02:59:03;8.75;;;2.95;;
5616;SDS011;2830;50.656;7.568;2023-02-28T03:01:33;11.40;;;3.25;;
5616;SDS011;2830;50.656;7.568;2023-02-28T03:04:02;9.85;;;3.25;;
5616;SDS011;2830;50.656;7.568;2023-02-28T03:06:30;10.70;;;3.00;;
5616;SDS011;2830;50.656;7.568;2023-02-28T03:08:57;8.65;;;2.72;;
5616;SDS011;2830;50.656;7.568;2023-02-28T03:11:24;9.82;;;2.72;;
5616;SDS011;2830;50.656;7.568;2023-02-28T03:22:09;12.00;;;3.28;;
5616;SDS011;2830;50.656;7.568;2023-02-28T03:29:57;9.43;;;2.58;;
5616;SDS011;2830;50.656;7.568;2023-02-28T03:32:35;10.40;;;3.17;;
5616;SDS011;2830;50.656;7.568;2023-02-28T03:35:12;7.95;;;2.13;;
5616;SDS011;2830;50.656;7.568;2023-02-28T03:37:40;8.25;;;2.45;;
5616;SDS011;2830;50.656;7.568;2023-02-28T03:40:09;8.32;;;2.20;;
5616;SDS011;2830;50.656;7.568;2023-02-28T03:42:39;8.40;;;2.28;;
5616;SDS011;2830;50.656;7.568;2023-02-28T03:45:13;7.30;;;1.98;;
5616;SDS011;2830;50.656;7.568;2023-02-28T03:47:49;7.85;;;2.53;;
5616;SDS011;2830;50.656;7.568;2023-02-28T03:50:22;8.27;;;2.20;;
5616;SDS011;2830;50.656;7.568;2023-02-28T03:53:01;8.38;;;2.70;;
5616;SDS011;2830;50.656;7.568;2023-02-28T03:55:38;7.55;;;2.35;;
5616;SDS011;2830;50.656;7.568;2023-02-28T03:58:19;8.93;;;3.22;;
5616;SDS011;2830;50.656;7.568;2023-02-28T04:00:48;8.25;;;2.92;;
5616;SDS011;2830;50.656;7.568;2023-02-28T04:03:16;9.35;;;2.70;;
5616;SDS011;2830;50.656;7.568;2023-02-28T04:05:45;11.73;;;2.53;;
5616;SDS011;2830;50.656;7.568;2023-02-28T04:08:13;9.68;;;3.53;;
5616;SDS011;2830;50.656;7.568;2023-02-28T04:10:40;10.25;;;3.22;;
5616;SDS011;2830;50.656;7.568;2023-02-28T04:13:09;8.20;;;2.42;;
5616;SDS011;2830;50.656;7.568;2023-02-28T04:15:37;9.77;;;2.83;;
5616;SDS011;2830;50.656;7.568;2023-02-28T04:18:04;9.25;;;3.35;;
5616;SDS011;2830;50.656;7.568;2023-02-28T04:20:32;11.95;;;6.72;;
5616;SDS011;2830;50.656;7.568;2023-02-28T04:22:59;9.45;;;3.80;;
5616;SDS011;2830;50.656;7.568;2023-02-28T04:25:26;8.95;;;2.45;;
5616;SDS011;2830;50.656;7.568;2023-02-28T04:27:53;9.55;;;4.05;;
5616;SDS011;2830;50.656;7.568;2023-02-28T04:30:20;11.10;;;4.43;;
5616;SDS011;2830;50.656;7.568;2023-02-28T04:32:47;8.63;;;2.47;;
5616;SDS011;2830;50.656;7.568;2023-02-28T04:35:14;7.82;;;3.00;;
5616;SDS011;2830;50.656;7.568;2023-02-28T04:37:42;8.63;;;2.53;;
5616;SDS011;2830;50.656;7.568;2023-02-28T04:40:09;11.30;;;3.15;;
5616;SDS011;2830;50.656;7.568;2023-02-28T04:42:36;9.10;;;2.55;;
5616;SDS011;2830;50.656;7.568;2023-02-28T04:45:03;8.23;;;2.42;;
5616;SDS011;2830;50.656;7.568;2023-02-28T04:47:31;12.75;;;5.65;;
5616;SDS011;2830;50.656;7.568;2023-02-28T04:49:58;9.65;;;4.07;;
5616;SDS011;2830;50.656;7.568;2023-02-28T04:52:25;11.40;;;4.30;;
5616;SDS011;2830;50.656;7.568;2023-02-28T04:54:53;14.55;;;6.13;;
5616;SDS011;2830;50.656;7.568;2023-02-28T04:57:21;7.35;;;2.67;;
5616;SDS011;2830;50.656;7.568;2023-02-28T04:59:48;9.00;;;2.28;;
5616;SDS011;2830;50.656;7.568;2023-02-28T05:02:15;7.75;;;2.70;;
5616;SDS011;2830;50.656;7.568;2023-02-28T05:04:42;8.40;;;3.00;;
5616;SDS011;2830;50.656;7.568;2023-02-28T05:07:09;9.38;;;2.65;;
5616;SDS011;2830;50.656;7.568;2023-02-28T05:09:36;9.35;;;2.60;;
5616;SDS011;2830;50.656;7.568;2023-02-28T05:12:03;7.55;;;2.58;;
5616;SDS011;2830;50.656;7.568;2023-02-28T05:14:30;7.93;;;2.65;;
5616;SDS011;2830;50.656;7.568;2023-02-28T05:16:57;13.15;;;2.80;;
5616;SDS011;2830;50.656;7.568;2023-02-28T05:19:24;8.90;;;2.97;;
5616;SDS011;2830;50.656;7.568;2023-02-28T05:21:53;7.93;;;2.30;;
5616;SDS011;2830;50.656;7.568;2023-02-28T05:24:20;12.52;;;3.00;;
5616;SDS011;2830;50.656;7.568;2023-02-28T05:26:51;7.85;;;2.90;;
5616;SDS011;2830;50.656;7.568;2023-02-28T05:29:19;9.85;;;3.63;;
5616;SDS011;2830;50.656;7.568;2023-02-28T05:31:46;8.32;;;3.15;;
5616;SDS011;2830;50.656;7.568;2023-02-28T05:34:13;9.38;;;3.40;;
5616;SDS011;2830;50.656;7.568;2023-02-28T05:36:42;10.90;;;3.28;;
5616;SDS011;2830;50.656;7.568;2023-02-28T05:39:09;7.78;;;3.17;;
5616;SDS011;2830;50.656;7.568;2023-02-28T05:41:39;9.77;;;2.83;;
5616;SDS011;2830;50.656;7.568;2023-02-28T05:44:07;9.57;;;3.13;;
5616;SDS011;2830;50.656;7.568;2023-02-28T05:46:34;7.45;;;2.65;;
5616;SDS011;2830;50.656;7.568;2023-02-28T05:49:01;12.85;;;3.10;;
5616;SDS011;2830;50.656;7.568;2023-02-28T05:51:28;9.10;;;3.00;;
5616;SDS011;2830;50.656;7.568;2023-02-28T05:53:58;9.00;;;3.17;;
5616;SDS011;2830;50.656;7.568;2023-02-28T05:56:25;9.60;;;2.97;;
5616;SDS011;2830;50.656;7.568;2023-02-28T05:58:52;8.60;;;3.20;;
5616;SDS011;2830;50.656;7.568;2023-02-28T06:01:36;8.93;;;3.15;;
5616;SDS011;2830;50.656;7.568;2023-02-28T06:04:04;9.35;;;3.40;;
5616;SDS011;2830;50.656;7.568;2023-02-28T06:06:31;8.57;;;2.83;;
5616;SDS011;2830;50.656;7.568;2023-02-28T06:09:03;8.00;;;2.78;;
5616;SDS011;2830;50.656;7.568;2023-02-28T06:11:30;9.88;;;3.38;;
5616;SDS011;2830;50.656;7.568;2023-02-28T06:13:58;8.23;;;2.53;;
5616;SDS011;2830;50.656;7.568;2023-02-28T06:16:28;8.70;;;2.88;;
5616;SDS011;2830;50.656;7.568;2023-02-28T06:18:59;7.68;;;2.58;;
5616;SDS011;2830;50.656;7.568;2023-02-28T06:21:27;10.90;;;3.20;;
5616;SDS011;2830;50.656;7.568;2023-02-28T06:23:56;8.07;;;2.65;;
5616;SDS011;2830;50.656;7.568;2023-02-28T06:26:23;10.60;;;3.60;;
5616;SDS011;2830;50.656;7.568;2023-02-28T06:28:50;9.52;;;3.38;;
5616;SDS011;2830;50.656;7.568;2023-02-28T06:31:17;11.68;;;3.25;;
5616;SDS011;2830;50.656;7.568;2023-02-28T06:33:45;10.43;;;3.72;;
5616;SDS011;2830;50.656;7.568;2023-02-28T06:36:13;9.15;;;3.50;;
5616;SDS011;2830;50.656;7.568;2023-02-28T06:38:40;9.60;;;3.50;;
5616;SDS011;2830;50.656;7.568;2023-02-28T06:41:08;11.07;;;3.80;;
5616;SDS011;2830;50.656;7.568;2023-02-28T06:43:37;11.32;;;3.97;;
5616;SDS011;2830;50.656;7.568;2023-02-28T06:46:05;9.05;;;4.10;;
5616;SDS011;2830;50.656;7.568;2023-02-28T06:48:32;10.00;;;4.57;;
5616;SDS011;2830;50.656;7.568;2023-02-28T06:51:02;15.27;;;7.35;;
5616;SDS011;2830;50.656;7.568;2023-02-28T06:53:29;9.55;;;4.25;;
5616;SDS011;2830;50.656;7.568;2023-02-28T06:55:56;9.02;;;3.40;;
5616;SDS011;2830;50.656;7.568;2023-02-28T06:58:24;8.90;;;3.22;;
5616;SDS011;2830;50.656;7.568;2023-02-28T07:00:52;8.07;;;3.20;;
5616;SDS011;2830;50.656;7.568;2023-02-28T07:03:19;8.50;;;3.40;;
5616;SDS011;2830;50.656;7.568;2023-02-28T07:05:46;9.63;;;3.50;;
5616;SDS011;2830;50.656;7.568;2023-02-28T07:08:13;10.55;;;4.80;;
5616;SDS011;2830;50.656;7.568;2023-02-28T07:10:40;9.90;;;3.55;;
5616;SDS011;2830;50.656;7.568;2023-02-28T07:13:08;9.90;;;4.20;;
5616;SDS011;2830;50.656;7.568;2023-02-28T07:15:36;11.45;;;3.47;;
5616;SDS011;2830;50.656;7.568;2023-02-28T07:18:07;9.10;;;3.80;;
5616;SDS011;2830;50.656;7.568;2023-02-28T07:20:34;8.98;;;3.35;;
5616;SDS011;2830;50.656;7.568;2023-02-28T07:23:01;8.55;;;3.38;;
5616;SDS011;2830;50.656;7.568;2023-02-28T07:25:28;8.50;;;3.90;;
5616;SDS011;2830;50.656;7.568;2023-02-28T07:27:56;9.75;;;3.55;;
5616;SDS011;2830;50.656;7.568;2023-02-28T07:30:25;9.35;;;3.45;;
5616;SDS011;2830;50.656;7.568;2023-02-28T07:32:52;9.52;;;3.90;;
5616;SDS011;2830;50.656;7.568;2023-02-28T07:35:22;9.30;;;4.03;;
5616;SDS011;2830;50.656;7.568;2023-02-28T07:37:49;8.90;;;3.50;;
5616;SDS011;2830;50.656;7.568;2023-02-28T07:40:16;10.32;;;3.75;;
5616;SDS011;2830;50.656;7.568;2023-02-28T07:42:44;11.55;;;4.60;;
5616;SDS011;2830;50.656;7.568;2023-02-28T07:45:11;9.55;;;4.10;;
5616;SDS011;2830;50.656;7.568;2023-02-28T07:47:38;9.48;;;3.63;;
5616;SDS011;2830;50.656;7.568;2023-02-28T07:50:06;11.05;;;4.05;;
5616;SDS011;2830;50.656;7.568;2023-02-28T07:52:33;11.15;;;3.53;;
5616;SDS011;2830;50.656;7.568;2023-02-28T07:55:00;14.45;;;4.95;;
5616;SDS011;2830;50.656;7.568;2023-02-28T07:57:27;14.27;;;6.30;;
5616;SDS011;2830;50.656;7.568;2023-02-28T07:59:54;13.93;;;4.97;;
5616;SDS011;2830;50.656;7.568;2023-02-28T08:02:22;10.98;;;3.38;;
5616;SDS011;2830;50.656;7.568;2023-02-28T08:04:49;11.80;;;3.80;;
5616;SDS011;2830;50.656;7.568;2023-02-28T08:07:16;12.20;;;3.70;;
5616;SDS011;2830;50.656;7.568;2023-02-28T08:09:44;18.17;;;7.63;;
5616;SDS011;2830;50.656;7.568;2023-02-28T08:12:13;16.80;;;6.13;;
5616;SDS011;2830;50.656;7.568;2023-02-28T08:14:40;13.55;;;3.83;;
5616;SDS011;2830;50.656;7.568;2023-02-28T08:17:09;12.80;;;3.08;;
5616;SDS011;2830;50.656;7.568;2023-02-28T08:19:36;12.25;;;4.05;;
5616;SDS011;2830;50.656;7.568;2023-02-28T08:22:03;23.42;;;8.93;;
5616;SDS011;2830;50.656;7.568;2023-02-28T08:24:30;12.77;;;5.07;;
5616;SDS011;2830;50.656;7.568;2023-02-28T08:26:57;13.93;;;5.32;;
5616;SDS011;2830;50.656;7.568;2023-02-28T08:29:24;14.13;;;4.93;;
5616;SDS011;2830;50.656;7.568;2023-02-28T08:31:51;11.38;;;3.10;;
5616;SDS011;2830;50.656;7.568;2023-02-28T08:34:19;12.23;;;4.03;;
5616;SDS011;2830;50.656;7.568;2023-02-28T08:36:46;13.60;;;5.30;;
5616;SDS011;2830;50.656;7.568;2023-02-28T08:39:13;12.33;;;4.20;;
5616;SDS011;2830;50.656;7.568;2023-02-28T08:41:41;11.27;;;2.73;;
5616;SDS011;2830;50.656;7.568;2023-02-28T08:44:08;12.60;;;3.60;;
5616;SDS011;2830;50.656;7.568;2023-02-28T08:46:35;16.80;;;6.43;;
5616;SDS011;2830;50.656;7.568;2023-02-28T08:49:02;15.20;;;6.20;;
5616;SDS011;2830;50.656;7.568;2023-02-28T08:51:29;12.87;;;4.90;;
5616;SDS011;2830;50.656;7.568;2023-02-28T08:53:58;14.67;;;4.53;;
5616;SDS011;2830;50.656;7.568;2023-02-28T08:56:26;13.40;;;2.33;;
5616;SDS011;2830;50.656;7.568;2023-02-28T08:58:54;12.73;;;2.70;;
5616;SDS011;2830;50.656;7.568;2023-02-28T09:01:23;15.63;;;2.90;;
5616;SDS011;2830;50.656;7.568;2023-02-28T09:03:51;13.63;;;2.77;;
5616;SDS011;2830;50.656;7.568;2023-02-28T09:06:19;13.10;;;2.57;;
5616;SDS011;2830;50.656;7.568;2023-02-28T09:08:46;13.73;;;2.27;;
5616;SDS011;2830;50.656;7.568;2023-02-28T09:11:13;12.73;;;2.30;;
5616;SDS011;2830;50.656;7.568;2023-02-28T09:13:40;12.27;;;1.90;;
5616;SDS011;2830;50.656;7.568;2023-02-28T09:16:09;13.93;;;2.27;;
5616;SDS011;2830;50.656;7.568;2023-02-28T09:18:37;13.83;;;2.10;;
5616;SDS011;2830;50.656;7.568;2023-02-28T09:21:05;14.03;;;2.50;;
5616;SDS011;2830;50.656;7.568;2023-02-28T09:23:32;15.77;;;2.50;;
5616;SDS011;2830;50.656;7.568;2023-02-28T09:25:59;13.80;;;2.00;;
5616;SDS011;2830;50.656;7.568;2023-02-28T09:28:26;14.33;;;2.10;;
5616;SDS011;2830;50.656;7.568;2023-02-28T09:30:54;13.57;;;1.80;;
5616;SDS011;2830;50.656;7.568;2023-02-28T09:33:23;14.10;;;1.70;;
5616;SDS011;2830;50.656;7.568;2023-02-28T09:35:50;14.27;;;1.87;;
5616;SDS011;2830;50.656;7.568;2023-02-28T09:38:17;14.60;;;1.97;;
5616;SDS011;2830;50.656;7.568;2023-02-28T09:40:47;13.27;;;1.70;;
5616;SDS011;2830;50.656;7.568;2023-02-28T09:43:15;15.10;;;1.97;;
5616;SDS011;2830;50.656;7.568;2023-02-28T09:45:46;16.37;;;2.13;;
5616;SDS011;2830;50.656;7.568;2023-02-28T09:48:19;17.07;;;2.40;;
5616;SDS011;2830;50.656;7.568;2023-02-28T09:53:35;12.53;;;1.47;;
5616;SDS011;2830;50.656;7.568;2023-02-28T09:56:15;14.60;;;2.10;;
5616;SDS011;2830;50.656;7.568;2023-02-28T09:58:50;12.63;;;1.83;;
5616;SDS011;2830;50.656;7.568;2023-02-28T10:01:31;14.80;;;2.30;;
5616;SDS011;2830;50.656;7.568;2023-02-28T10:06:33;13.60;;;2.30;;
5616;SDS011;2830;50.656;7.568;2023-02-28T10:09:04;14.40;;;2.23;;
5616;SDS011;2830;50.656;7.568;2023-02-28T10:11:35;13.20;;;2.13;;
5616;SDS011;2830;50.656;7.568;2023-02-28T10:14:11;13.23;;;1.87;;
5616;SDS011;2830;50.656;7.568;2023-02-28T10:16:42;14.70;;;1.83;;
5616;SDS011;2830;50.656;7.568;2023-02-28T10:19:23;14.90;;;1.90;;
5616;SDS011;2830;50.656;7.568;2023-02-28T10:21:57;12.93;;;1.87;;
5616;SDS011;2830;50.656;7.568;2023-02-28T10:24:27;15.23;;;2.97;;
5616;SDS011;2830;50.656;7.568;2023-02-28T10:27:29;16.03;;;3.30;;
5616;SDS011;2830;50.656;7.568;2023-02-28T10:29:52;14.60;;;2.80;;
5616;SDS011;2830;50.656;7.568;2023-02-28T10:32:22;24.90;;;5.40;;
5616;SDS011;2830;50.656;7.568;2023-02-28T10:34:51;16.20;;;3.40;;
5616;SDS011;2830;50.656;7.568;2023-02-28T10:37:18;12.57;;;1.83;;
5616;SDS011;2830;50.656;7.568;2023-02-28T10:39:46;14.13;;;2.97;;
5616;SDS011;2830;50.656;7.568;2023-02-28T10:42:24;12.07;;;1.90;;
5616;SDS011;2830;50.656;7.568;2023-02-28T10:47:31;11.97;;;2.03;;
5616;SDS011;2830;50.656;7.568;2023-02-28T10:49:59;16.30;;;2.20;;
5616;SDS011;2830;50.656;7.568;2023-02-28T10:52:37;13.73;;;1.70;;
5616;SDS011;2830;50.656;7.568;2023-02-28T10:55:24;12.50;;;2.20;;
5616;SDS011;2830;50.656;7.568;2023-02-28T10:57:52;12.80;;;1.80;;
5616;SDS011;2830;50.656;7.568;2023-02-28T11:00:23;15.17;;;2.10;;
5616;SDS011;2830;50.656;7.568;2023-02-28T11:02:51;15.57;;;2.90;;
5616;SDS011;2830;50.656;7.568;2023-02-28T11:05:22;14.10;;;2.33;;
5616;SDS011;2830;50.656;7.568;2023-02-28T11:07:51;15.60;;;2.60;;
5616;SDS011;2830;50.656;7.568;2023-02-28T11:10:19;14.80;;;1.80;;
5616;SDS011;2830;50.656;7.568;2023-02-28T11:12:47;14.37;;;1.90;;
5616;SDS011;2830;50.656;7.568;2023-02-28T11:15:29;14.50;;;2.00;;
5616;SDS011;2830;50.656;7.568;2023-02-28T11:18:01;12.47;;;1.63;;
5616;SDS011;2830;50.656;7.568;2023-02-28T11:20:29;13.33;;;2.03;;
5616;SDS011;2830;50.656;7.568;2023-02-28T11:22:58;13.93;;;1.80;;
5616;SDS011;2830;50.656;7.568;2023-02-28T11:25:26;13.70;;;2.33;;
5616;SDS011;2830;50.656;7.568;2023-02-28T11:27:56;16.07;;;2.37;;
5616;SDS011;2830;50.656;7.568;2023-02-28T11:30:26;14.73;;;2.33;;
5616;SDS011;2830;50.656;7.568;2023-02-28T11:32:53;14.83;;;2.20;;
5616;SDS011;2830;50.656;7.568;2023-02-28T11:35:23;15.10;;;1.93;;
5616;SDS011;2830;50.656;7.568;2023-02-28T11:37:51;14.80;;;2.10;;
5616;SDS011;2830;50.656;7.568;2023-02-28T11:40:20;14.80;;;2.57;;
5616;SDS011;2830;50.656;7.568;2023-02-28T11:48:04;15.07;;;2.30;;
5616;SDS011;2830;50.656;7.568;2023-02-28T11:53:40;15.30;;;2.03;;
5616;SDS011;2830;50.656;7.568;2023-02-28T11:56:10;14.17;;;2.00;;
5616;SDS011;2830;50.656;7.568;2023-02-28T12:02:17;16.10;;;2.30;;
5616;SDS011;2830;50.656;7.568;2023-02-28T12:07:19;14.73;;;2.33;;
5616;SDS011;2830;50.656;7.568;2023-02-28T12:25:01;15.27;;;2.30;;
5616;SDS011;2830;50.656;7.568;2023-02-28T12:27:31;14.80;;;2.37;;
5616;SDS011;2830;50.656;7.568;2023-02-28T12:32:46;17.37;;;2.27;;
5616;SDS011;2830;50.656;7.568;2023-02-28T12:35:16;17.57;;;2.40;;
5616;SDS011;2830;50.656;7.568;2023-02-28T12:37:46;15.30;;;2.90;;
5616;SDS011;2830;50.656;7.568;2023-02-28T12:40:23;15.70;;;2.40;;
5616;SDS011;2830;50.656;7.568;2023-02-28T12:42:56;14.30;;;2.30;;
5616;SDS011;2830;50.656;7.568;2023-02-28T12:45:26;15.60;;;2.57;;
5616;SDS011;2830;50.656;7.568;2023-02-28T12:47:59;15.83;;;3.10;;
5616;SDS011;2830;50.656;7.568;2023-02-28T12:50:28;15.40;;;3.07;;
5616;SDS011;2830;50.656;7.568;2023-02-28T12:53:00;14.67;;;2.57;;
5616;SDS011;2830;50.656;7.568;2023-02-28T12:58:39;15.87;;;2.53;;
5616;SDS011;2830;50.656;7.568;2023-02-28T13:09:09;14.97;;;2.90;;
5616;SDS011;2830;50.656;7.568;2023-02-28T13:14:15;17.23;;;2.70;;
5616;SDS011;2830;50.656;7.568;2023-02-28T13:19:24;17.10;;;2.73;;
5616;SDS011;2830;50.656;7.568;2023-02-28T13:21:51;15.13;;;2.40;;
5616;SDS011;2830;50.656;7.568;2023-02-28T13:29:39;15.40;;;2.60;;
5616;SDS011;2830;50.656;7.568;2023-02-28T13:34:39;15.57;;;3.00;;
5616;SDS011;2830;50.656;7.568;2023-02-28T13:39:52;17.20;;;2.90;;
5616;SDS011;2830;50.656;7.568;2023-02-28T13:42:30;14.90;;;2.87;;
5616;SDS011;2830;50.656;7.568;2023-02-28T13:47:29;14.20;;;3.07;;
5616;SDS011;2830;50.656;7.568;2023-02-28T14:06:08;13.20;;;3.23;;
5616;SDS011;2830;50.656;7.568;2023-02-28T14:08:36;17.20;;;4.13;;
5616;SDS011;2830;50.656;7.568;2023-02-28T14:11:08;13.80;;;3.60;;
5616;SDS011;2830;50.656;7.568;2023-02-28T14:16:13;13.93;;;4.00;;
5616;SDS011;2830;50.656;7.568;2023-02-28T14:19:28;13.40;;;3.87;;
5616;SDS011;2830;50.656;7.568;2023-02-28T14:21:33;13.67;;;3.47;;
5616;SDS011;2830;50.656;7.568;2023-02-28T14:29:38;12.47;;;3.17;;
5616;SDS011;2830;50.656;7.568;2023-02-28T14:32:15;13.88;;;3.95;;
5616;SDS011;2830;50.656;7.568;2023-02-28T14:37:16;15.43;;;4.07;;
5616;SDS011;2830;50.656;7.568;2023-02-28T14:39:46;13.10;;;3.53;;
5616;SDS011;2830;50.656;7.568;2023-02-28T14:42:25;14.30;;;3.75;;
5616;SDS011;2830;50.656;7.568;2023-02-28T14:44:55;14.38;;;3.85;;
5616;SDS011;2830;50.656;7.568;2023-02-28T14:47:23;17.90;;;3.95;;
5616;SDS011;2830;50.656;7.568;2023-02-28T14:49:53;13.88;;;4.13;;
5616;SDS011;2830;50.656;7.568;2023-02-28T14:52:21;13.20;;;3.28;;
5616;SDS011;2830;50.656;7.568;2023-02-28T14:54:56;16.38;;;3.63;;
5616;SDS011;2830;50.656;7.568;2023-02-28T14:57:26;12.40;;;3.22;;
5616;SDS011;2830;50.656;7.568;2023-02-28T15:00:40;12.20;;;3.10;;
5616;SDS011;2830;50.656;7.568;2023-02-28T15:02:43;14.52;;;3.72;;
5616;SDS011;2830;50.656;7.568;2023-02-28T15:07:44;12.82;;;3.78;;
5616;SDS011;2830;50.656;7.568;2023-02-28T15:12:49;11.95;;;3.45;;
5616;SDS011;2830;50.656;7.568;2023-02-28T15:15:18;14.05;;;3.72;;
5616;SDS011;2830;50.656;7.568;2023-02-28T15:17:57;15.55;;;4.10;;
5616;SDS011;2830;50.656;7.568;2023-02-28T15:20:25;12.82;;;4.43;;
5616;SDS011;2830;50.656;7.568;2023-02-28T15:22:53;13.38;;;3.70;;
5616;SDS011;2830;50.656;7.568;2023-02-28T15:25:22;14.60;;;4.20;;
5616;SDS011;2830;50.656;7.568;2023-02-28T15:27:50;12.68;;;3.90;;
5616;SDS011;2830;50.656;7.568;2023-02-28T15:30:20;12.85;;;4.57;;
5616;SDS011;2830;50.656;7.568;2023-02-28T15:33:03;15.23;;;3.50;;
5616;SDS011;2830;50.656;7.568;2023-02-28T15:35:31;16.15;;;4.45;;
5616;SDS011;2830;50.656;7.568;2023-02-28T15:38:13;13.55;;;4.43;;
5616;SDS011;2830;50.656;7.568;2023-02-28T15:40:42;12.45;;;3.33;;
5616;SDS011;2830;50.656;7.568;2023-02-28T15:43:17;12.75;;;3.17;;
5616;SDS011;2830;50.656;7.568;2023-02-28T15:45:48;13.93;;;4.43;;
5616;SDS011;2830;50.656;7.568;2023-02-28T15:48:24;14.68;;;4.10;;
5616;SDS011;2830;50.656;7.568;2023-02-28T15:50:52;11.57;;;3.47;;
5616;SDS011;2830;50.656;7.568;2023-02-28T15:53:28;14.57;;;4.35;;
5616;SDS011;2830;50.656;7.568;2023-02-28T15:55:59;13.98;;;4.50;;
5616;SDS011;2830;50.656;7.568;2023-02-28T15:58:26;13.85;;;3.83;;
5616;SDS011;2830;50.656;7.568;2023-02-28T16:01:03;25.95;;;7.97;;
5616;SDS011;2830;50.656;7.568;2023-02-28T16:03:38;13.98;;;4.00;;
5616;SDS011;2830;50.656;7.568;2023-02-28T16:06:09;11.48;;;2.53;;
5616;SDS011;2830;50.656;7.568;2023-02-28T16:08:47;18.15;;;5.57;;
5616;SDS011;2830;50.656;7.568;2023-02-28T16:11:20;18.35;;;5.65;;
5616;SDS011;2830;50.656;7.568;2023-02-28T16:13:48;12.85;;;4.00;;
5616;SDS011;2830;50.656;7.568;2023-02-28T16:16:19;13.35;;;3.40;;
5616;SDS011;2830;50.656;7.568;2023-02-28T16:18:46;12.40;;;3.13;;
5616;SDS011;2830;50.656;7.568;2023-02-28T16:21:13;14.65;;;4.18;;
5616;SDS011;2830;50.656;7.568;2023-02-28T16:23:41;17.20;;;5.10;;
5616;SDS011;2830;50.656;7.568;2023-02-28T16:26:08;17.95;;;6.00;;
5616;SDS011;2830;50.656;7.568;2023-02-28T16:28:37;13.13;;;3.40;;
5616;SDS011;2830;50.656;7.568;2023-02-28T16:31:05;23.35;;;8.27;;
5616;SDS011;2830;50.656;7.568;2023-02-28T16:33:34;18.65;;;6.90;;
5616;SDS011;2830;50.656;7.568;2023-02-28T16:36:03;14.63;;;4.28;;
5616;SDS011;2830;50.656;7.568;2023-02-28T16:38:30;14.23;;;4.80;;
5616;SDS011;2830;50.656;7.568;2023-02-28T16:40:58;13.65;;;3.35;;
5616;SDS011;2830;50.656;7.568;2023-02-28T16:43:26;13.20;;;4.43;;
5616;SDS011;2830;50.656;7.568;2023-02-28T16:45:56;13.25;;;3.70;;
5616;SDS011;2830;50.656;7.568;2023-02-28T16:48:27;12.23;;;3.35;;
5616;SDS011;2830;50.656;7.568;2023-02-28T16:50:54;13.15;;;3.67;;
5616;SDS011;2830;50.656;7.568;2023-02-28T16:53:21;13.27;;;3.90;;
5616;SDS011;2830;50.656;7.568;2023-02-28T16:55:48;11.65;;;3.00;;
5616;SDS011;2830;50.656;7.568;2023-02-28T16:58:16;16.98;;;3.55;;
5616;SDS011;2830;50.656;7.568;2023-02-28T17:00:45;18.95;;;3.13;;
5616;SDS011;2830;50.656;7.568;2023-02-28T17:03:26;11.45;;;3.25;;
5616;SDS011;2830;50.656;7.568;2023-02-28T17:05:59;14.68;;;3.92;;
5616;SDS011;2830;50.656;7.568;2023-02-28T17:08:26;18.92;;;4.75;;
5616;SDS011;2830;50.656;7.568;2023-02-28T17:10:55;15.05;;;4.93;;
5616;SDS011;2830;50.656;7.568;2023-02-28T17:13:22;12.98;;;4.25;;
5616;SDS011;2830;50.656;7.568;2023-02-28T17:15:49;16.73;;;5.82;;
5616;SDS011;2830;50.656;7.568;2023-02-28T17:18:17;23.98;;;9.77;;
5616;SDS011;2830;50.656;7.568;2023-02-28T17:20:45;19.30;;;7.93;;
5616;SDS011;2830;50.656;7.568;2023-02-28T17:23:12;17.08;;;7.90;;
5616;SDS011;2830;50.656;7.568;2023-02-28T17:25:40;15.50;;;5.82;;
5616;SDS011;2830;50.656;7.568;2023-02-28T17:28:08;17.30;;;6.28;;
5616;SDS011;2830;50.656;7.568;2023-02-28T17:30:35;20.90;;;9.23;;